createdAt,value
2023-07-14T00:01:59.364Z,2.50
2023-07-14T00:04:33.180Z,3.17
2023-07-14T00:07:02.052Z,2.90
2023-07-14T00:09:32.105Z,3.45
2023-07-14T00:12:02.346Z,3.60
2023-07-14T00:14:31.264Z,2.92
2023-07-14T00:16:59.780Z,2.85
2023-07-14T00:19:28.293Z,3.15
2023-07-14T00:21:56.828Z,3.20
2023-07-14T00:24:24.993Z,2.65
2023-07-14T00:26:57.911Z,3.53
2023-07-14T00:29:38.923Z,2.80
2023-07-14T00:32:14.867Z,2.88
2023-07-14T00:34:43.692Z,3.20
2023-07-14T00:37:12.358Z,2.97
2023-07-14T00:39:40.747Z,3.05
2023-07-14T00:42:14.571Z,3.30
2023-07-14T00:44:44.922Z,2.85
2023-07-14T00:47:23.965Z,2.83
2023-07-14T00:49:54.478Z,3.10
2023-07-14T00:52:29.876Z,3.33
2023-07-14T00:54:57.949Z,3.20
2023-07-14T00:57:29.935Z,2.90
2023-07-14T01:00:06.537Z,3.28
2023-07-14T01:02:34.780Z,3.35
2023-07-14T01:05:06.586Z,3.15
2023-07-14T01:07:37.729Z,3.20
2023-07-14T01:10:09.706Z,3.95
2023-07-14T01:12:42.204Z,3.50
2023-07-14T01:15:12.328Z,3.10
2023-07-14T01:17:40.708Z,4.15
2023-07-14T01:20:11.076Z,4.90
2023-07-14T01:22:48.179Z,3.22
2023-07-14T01:25:25.786Z,3.70
2023-07-14T01:27:55.510Z,4.07
2023-07-14T01:30:24.593Z,3.58
2023-07-14T01:32:53.482Z,3.13
2023-07-14T01:35:28.806Z,3.42
2023-07-14T01:37:57.178Z,3.00
2023-07-14T01:40:25.889Z,3.00
2023-07-14T01:43:01.193Z,2.97
2023-07-14T01:45:33.041Z,3.33
2023-07-14T01:48:04.137Z,3.30
2023-07-14T01:50:34.796Z,3.28
2023-07-14T01:53:07.760Z,3.78
2023-07-14T01:55:37.151Z,2.83
2023-07-14T01:58:14.061Z,3.00
2023-07-14T02:00:44.763Z,3.28
2023-07-14T02:03:15.109Z,3.65
2023-07-14T02:05:43.401Z,3.22
2023-07-14T02:08:18.152Z,2.70
2023-07-14T02:10:46.125Z,2.97
2023-07-14T02:13:15.887Z,3.63
2023-07-14T02:15:46.134Z,2.75
2023-07-14T02:18:17.384Z,2.83
2023-07-14T02:20:48.926Z,2.72
2023-07-14T02:23:21.826Z,2.97
2023-07-14T02:25:59.871Z,3.67
2023-07-14T02:28:29.451Z,3.03
2023-07-14T02:31:06.571Z,3.05
2023-07-14T02:33:39.181Z,2.50
2023-07-14T02:36:13.175Z,3.20
2023-07-14T02:38:41.907Z,2.88
2023-07-14T02:41:20.271Z,2.83
2023-07-14T02:43:55.285Z,2.47
2023-07-14T02:46:29.830Z,2.72
2023-07-14T02:48:57.743Z,2.60
2023-07-14T02:51:25.654Z,2.72
2023-07-14T02:53:53.426Z,2.33
2023-07-14T02:56:22.096Z,3.60
2023-07-14T02:58:51.842Z,2.30
2023-07-14T03:01:21.709Z,2.70
2023-07-14T03:03:50.167Z,2.50
2023-07-14T03:06:20.880Z,2.50
2023-07-14T03:08:49.101Z,2.47
2023-07-14T03:11:17.082Z,3.00
2023-07-14T03:13:45.432Z,2.83
2023-07-14T03:16:14.937Z,2.35
2023-07-14T03:18:42.886Z,2.10
2023-07-14T03:21:12.857Z,2.97
2023-07-14T03:23:40.932Z,2.33
2023-07-14T03:26:11.354Z,2.90
2023-07-14T03:28:39.442Z,4.10
2023-07-14T03:31:07.869Z,3.63
2023-07-14T03:33:37.621Z,3.80
2023-07-14T03:36:07.583Z,3.05
2023-07-14T03:38:43.936Z,3.17
2023-07-14T03:41:13.337Z,2.90
2023-07-14T03:43:41.598Z,2.95
2023-07-14T03:46:09.835Z,2.60
2023-07-14T03:48:39.377Z,3.60
2023-07-14T03:51:08.330Z,2.60
2023-07-14T03:53:37.079Z,2.75
2023-07-14T03:56:05.246Z,2.92
2023-07-14T03:58:33.116Z,3.03
2023-07-14T04:01:02.054Z,2.65
2023-07-14T04:03:30.322Z,3.33
2023-07-14T04:05:59.610Z,2.72
2023-07-14T04:08:27.456Z,3.05
2023-07-14T04:10:55.916Z,2.92
2023-07-14T04:13:23.814Z,3.17
2023-07-14T04:15:51.772Z,3.20
2023-07-14T04:18:19.799Z,3.20
2023-07-14T04:20:47.925Z,2.88
2023-07-14T04:23:18.399Z,2.85
2023-07-14T04:25:46.916Z,3.92
2023-07-14T04:28:14.899Z,2.97
2023-07-14T04:30:42.903Z,3.50
2023-07-14T04:33:10.828Z,3.08
2023-07-14T04:35:38.735Z,3.38
2023-07-14T04:38:07.910Z,3.45
2023-07-14T04:40:41.638Z,3.47
2023-07-14T04:45:39.812Z,3.92
2023-07-14T04:48:09.724Z,3.75
2023-07-14T04:50:38.463Z,3.10
2023-07-14T04:53:07.567Z,3.35
2023-07-14T04:55:38.785Z,4.10
2023-07-14T04:58:07.262Z,3.90
2023-07-14T05:00:36.858Z,3.70
2023-07-14T05:03:05.478Z,3.70
2023-07-14T05:05:34.866Z,3.63
2023-07-14T05:08:02.884Z,3.90
2023-07-14T05:10:32.979Z,3.90
2023-07-14T05:13:03.016Z,3.90
2023-07-14T05:15:31.311Z,3.67
2023-07-14T05:17:59.359Z,3.97
2023-07-14T05:20:27.661Z,3.90
2023-07-14T05:22:56.437Z,4.10
2023-07-14T05:25:24.982Z,4.65
2023-07-14T05:27:53.413Z,3.97
2023-07-14T05:30:23.703Z,3.92
2023-07-14T05:32:52.158Z,4.45
2023-07-14T05:35:20.537Z,4.43
2023-07-14T05:37:48.781Z,4.45
2023-07-14T05:40:19.178Z,4.13
2023-07-14T05:42:48.397Z,5.40
2023-07-14T05:45:17.050Z,4.78
2023-07-14T05:47:48.539Z,5.45
2023-07-14T05:50:18.253Z,5.13
2023-07-14T05:52:47.741Z,5.65
2023-07-14T05:55:15.949Z,4.97
2023-07-14T05:57:45.170Z,5.70
2023-07-14T06:00:17.696Z,4.68
2023-07-14T06:02:51.337Z,6.10
2023-07-14T06:05:20.766Z,5.25
2023-07-14T06:07:48.656Z,5.38
2023-07-14T06:10:16.605Z,6.05
2023-07-14T06:12:44.454Z,5.10
2023-07-14T06:15:12.717Z,5.57
2023-07-14T06:17:41.077Z,4.47
2023-07-14T06:20:13.315Z,5.45
2023-07-14T06:22:41.779Z,5.65
2023-07-14T06:25:10.132Z,4.82
2023-07-14T06:27:38.001Z,5.57
2023-07-14T06:30:06.910Z,4.97
2023-07-14T06:32:34.765Z,4.82
2023-07-14T06:35:02.628Z,4.95
2023-07-14T06:37:31.764Z,5.47
2023-07-14T06:39:59.868Z,5.80
2023-07-14T06:42:27.804Z,6.57
2023-07-14T06:44:55.607Z,7.30
2023-07-14T06:47:23.534Z,6.90
2023-07-14T06:49:51.534Z,6.80
2023-07-14T06:52:19.336Z,6.78
2023-07-14T06:54:48.611Z,6.00
2023-07-14T06:57:16.884Z,6.18
2023-07-14T06:59:44.845Z,5.97
2023-07-14T07:02:13.286Z,6.32
2023-07-14T07:04:41.164Z,5.88
2023-07-14T07:07:09.147Z,5.97
2023-07-14T07:09:36.983Z,5.97
2023-07-14T07:12:09.644Z,5.82
2023-07-14T07:14:37.769Z,5.55
2023-07-14T07:17:06.281Z,5.95
2023-07-14T07:19:34.605Z,6.43
2023-07-14T07:22:02.378Z,5.18
2023-07-14T07:24:30.332Z,5.82
2023-07-14T07:26:58.126Z,5.38
2023-07-14T07:29:27.611Z,5.07
2023-07-14T07:31:55.466Z,6.00
2023-07-14T07:34:23.287Z,5.55
2023-07-14T07:36:51.358Z,5.50
2023-07-14T07:39:19.207Z,5.22
2023-07-14T07:41:47.116Z,5.15
2023-07-14T07:44:14.884Z,6.55
2023-07-14T07:46:44.781Z,6.28
2023-07-14T07:49:12.752Z,5.40
2023-07-14T07:51:40.581Z,5.30
2023-07-14T07:54:08.360Z,5.72
2023-07-14T07:56:36.512Z,5.28
2023-07-14T07:59:04.464Z,5.25
2023-07-14T08:01:32.353Z,5.00
2023-07-14T08:04:01.777Z,4.90
2023-07-14T08:06:29.884Z,4.63
2023-07-14T08:08:57.680Z,6.00
2023-07-14T08:11:25.525Z,6.13
2023-07-14T08:13:53.327Z,5.70
2023-07-14T08:16:21.188Z,5.57
2023-07-14T08:18:49.045Z,5.50
2023-07-14T08:21:18.260Z,4.70
2023-07-14T08:23:46.145Z,5.40
2023-07-14T08:26:15.380Z,4.60
2023-07-14T08:28:43.462Z,4.53
2023-07-14T08:31:15.280Z,5.47
2023-07-14T08:33:45.157Z,4.60
2023-07-14T08:36:15.306Z,5.72
2023-07-14T08:38:44.661Z,4.65
2023-07-14T08:41:23.109Z,4.43
2023-07-14T08:44:09.473Z,4.80
2023-07-14T08:46:42.951Z,4.28
2023-07-14T08:49:22.172Z,4.78
2023-07-14T08:51:54.813Z,4.25
2023-07-14T08:54:28.480Z,4.28
2023-07-14T08:56:56.365Z,3.65
2023-07-14T08:59:34.739Z,3.90
2023-07-14T09:02:11.913Z,4.05
2023-07-14T09:04:43.863Z,3.42
2023-07-14T09:07:18.568Z,3.80
2023-07-14T09:09:47.994Z,3.22
2023-07-14T09:12:24.781Z,2.78
2023-07-14T09:15:03.178Z,3.03
2023-07-14T09:17:50.728Z,3.42
2023-07-14T09:20:41.381Z,2.75
2023-07-14T09:23:18.679Z,2.90
2023-07-14T09:25:56.152Z,3.00
2023-07-14T09:28:34.378Z,3.13
2023-07-14T09:31:06.621Z,2.70
2023-07-14T09:33:50.019Z,2.85
2023-07-14T09:36:19.256Z,2.67
2023-07-14T09:38:50.187Z,2.55
2023-07-14T09:41:20.438Z,2.40
2023-07-14T09:43:48.306Z,2.40
2023-07-14T09:46:19.211Z,2.15
2023-07-14T09:48:51.542Z,2.45
2023-07-14T09:51:26.116Z,2.60
2023-07-14T09:54:02.639Z,2.70
2023-07-14T09:56:37.426Z,2.60
2023-07-14T09:59:08.580Z,2.17
2023-07-14T10:01:36.448Z,2.55
2023-07-14T10:04:18.080Z,2.80
2023-07-14T10:06:48.865Z,2.50
2023-07-14T10:09:17.472Z,2.58
2023-07-14T10:11:50.640Z,2.40
2023-07-14T10:16:49.538Z,2.90
2023-07-14T10:19:19.884Z,3.25
2023-07-14T10:21:55.969Z,3.55
2023-07-14T10:24:26.602Z,3.20
2023-07-14T10:26:59.333Z,3.47
2023-07-14T10:29:29.880Z,3.67
2023-07-14T10:32:06.805Z,3.55
2023-07-14T10:34:54.307Z,3.55
2023-07-14T10:37:26.006Z,3.53
2023-07-14T10:40:00.350Z,3.50
2023-07-14T10:42:37.094Z,3.53
2023-07-14T10:45:05.820Z,3.30
2023-07-14T10:47:45.210Z,3.53
2023-07-14T10:50:19.338Z,3.05
2023-07-14T10:52:52.486Z,3.05
2023-07-14T10:55:25.819Z,3.50
2023-07-14T10:57:59.267Z,3.38
2023-07-14T11:03:15.642Z,3.55
2023-07-14T11:08:14.895Z,4.05
2023-07-14T11:10:53.338Z,3.60
2023-07-14T11:13:30.278Z,3.35
2023-07-14T11:16:08.393Z,3.80
2023-07-14T11:18:47.046Z,3.05
2023-07-14T11:21:37.774Z,3.03
2023-07-14T11:24:18.373Z,3.67
2023-07-14T11:27:07.011Z,3.30
2023-07-14T11:29:43.976Z,3.47
2023-07-14T11:32:21.383Z,3.45
2023-07-14T11:34:58.462Z,2.90
2023-07-14T11:37:40.693Z,2.92
2023-07-14T11:40:21.146Z,2.70
2023-07-14T11:42:54.036Z,3.30
2023-07-14T11:45:26.584Z,3.28
2023-07-14T11:47:57.400Z,3.00
2023-07-14T11:50:39.422Z,3.00
2023-07-14T11:53:21.809Z,3.30
2023-07-14T11:55:52.199Z,2.60
2023-07-14T11:58:27.876Z,3.20
2023-07-14T12:01:00.424Z,3.20
2023-07-14T12:03:36.778Z,3.55
2023-07-14T12:06:45.190Z,2.88
2023-07-14T12:09:17.729Z,3.17
2023-07-14T12:11:57.788Z,2.38
2023-07-14T12:14:47.531Z,3.20
2023-07-14T12:17:50.959Z,2.70
2023-07-14T12:20:29.212Z,2.50
2023-07-14T12:23:25.409Z,2.78
2023-07-14T12:25:58.814Z,2.40
2023-07-14T12:30:56.414Z,2.30
2023-07-14T12:33:26.253Z,2.20
2023-07-14T12:35:54.593Z,2.58
2023-07-14T12:38:24.113Z,2.75
2023-07-14T12:40:55.295Z,3.17
2023-07-14T12:43:29.670Z,2.60
2023-07-14T12:45:58.835Z,2.85
2023-07-14T12:48:30.420Z,2.50
2023-07-14T12:50:59.020Z,2.65
2023-07-14T12:53:30.565Z,2.70
2023-07-14T12:56:06.013Z,2.92
2023-07-14T12:58:33.842Z,2.83
2023-07-14T13:01:01.643Z,2.90
2023-07-14T13:03:37.248Z,2.47
2023-07-14T13:06:05.163Z,2.42
2023-07-14T13:08:33.849Z,2.28
2023-07-14T13:11:06.991Z,2.35
2023-07-14T13:13:40.434Z,2.28
2023-07-14T13:16:08.517Z,2.22
2023-07-14T13:18:37.831Z,2.40
2023-07-14T13:21:26.936Z,2.45
2023-07-14T13:23:56.916Z,2.90
2023-07-14T13:26:25.033Z,2.33
2023-07-14T13:28:58.242Z,2.97
2023-07-14T13:31:29.423Z,2.30
2023-07-14T13:33:59.469Z,2.20
2023-07-14T13:36:29.569Z,3.00
2023-07-14T13:38:57.862Z,2.45
2023-07-14T13:41:27.663Z,2.67
2023-07-14T13:44:39.553Z,2.75
2023-07-14T13:47:19.467Z,3.10
2023-07-14T13:49:51.993Z,2.88
2023-07-14T13:52:21.834Z,3.67
2023-07-14T13:54:55.062Z,2.85
2023-07-14T13:57:24.689Z,2.47
2023-07-14T13:59:52.945Z,2.50
2023-07-14T14:02:33.330Z,2.60
2023-07-14T14:05:06.880Z,2.10
2023-07-14T14:07:35.043Z,2.35
2023-07-14T14:10:02.935Z,2.30
2023-07-14T14:12:30.807Z,2.20
2023-07-14T14:14:58.673Z,2.58
2023-07-14T14:17:35.152Z,2.58
2023-07-14T14:20:07.117Z,2.45
2023-07-14T14:22:35.078Z,2.58
2023-07-14T14:25:02.988Z,2.90
2023-07-14T14:27:30.789Z,2.40
2023-07-14T14:29:58.590Z,2.10
2023-07-14T14:32:27.101Z,2.13
2023-07-14T14:34:59.906Z,2.78
2023-07-14T14:37:29.188Z,2.58
2023-07-14T14:39:57.189Z,3.05
2023-07-14T14:42:24.999Z,2.47
2023-07-14T14:44:52.877Z,2.45
2023-07-14T14:47:21.103Z,2.40
2023-07-14T14:49:48.937Z,2.35
2023-07-14T14:52:16.913Z,2.28
2023-07-14T14:54:46.369Z,2.05
2023-07-14T14:57:17.882Z,2.80
2023-07-14T14:59:46.862Z,2.50
2023-07-14T15:02:17.707Z,2.63
2023-07-14T15:04:45.758Z,1.92
2023-07-14T15:07:15.169Z,2.15
2023-07-14T15:09:43.817Z,2.17
2023-07-14T15:12:17.569Z,2.13
2023-07-14T15:15:39.084Z,2.72
2023-07-14T15:21:58.424Z,2.38
2023-07-14T15:24:26.794Z,2.65
2023-07-14T15:26:55.223Z,2.80
2023-07-14T15:29:24.948Z,2.22
2023-07-14T15:31:55.693Z,3.03
2023-07-14T15:34:23.620Z,2.42
2023-07-14T15:36:51.606Z,2.42
2023-07-14T15:39:27.355Z,2.42
2023-07-14T15:41:56.544Z,2.20
2023-07-14T15:44:43.993Z,2.70
2023-07-14T15:47:17.086Z,2.70
2023-07-14T15:52:22.767Z,2.33
2023-07-14T15:54:51.072Z,2.40
2023-07-14T15:57:19.054Z,2.30
2023-07-14T15:59:48.304Z,2.85
2023-07-14T16:02:17.404Z,3.05
2023-07-14T16:04:45.312Z,2.65
2023-07-14T16:07:18.585Z,2.25
2023-07-14T16:09:47.066Z,2.97
2023-07-14T16:12:19.873Z,2.97
2023-07-14T16:14:49.139Z,2.17
2023-07-14T16:17:17.031Z,2.67
2023-07-14T16:19:47.103Z,2.97
2023-07-14T16:22:19.584Z,2.53
2023-07-14T16:24:48.641Z,2.53
2023-07-14T16:27:24.828Z,2.63
2023-07-14T16:29:54.768Z,2.63
2023-07-14T16:32:23.292Z,2.33
2023-07-14T16:34:51.933Z,2.60
2023-07-14T16:37:20.965Z,2.60
2023-07-14T16:39:49.564Z,3.38
2023-07-14T16:42:19.458Z,4.15
2023-07-14T16:44:47.611Z,4.00
2023-07-14T16:47:16.869Z,3.80
2023-07-14T16:49:44.890Z,2.75
2023-07-14T16:52:24.933Z,6.47
2023-07-14T16:54:53.559Z,3.25
2023-07-14T16:57:32.423Z,3.60
2023-07-14T17:00:00.321Z,3.33
2023-07-14T17:02:29.599Z,2.45
2023-07-14T17:04:58.888Z,3.00
2023-07-14T17:07:26.778Z,3.40
2023-07-14T17:09:56.969Z,3.83
2023-07-14T17:12:26.684Z,2.83
2023-07-14T17:14:54.570Z,2.72
2023-07-14T17:17:22.440Z,2.75
2023-07-14T17:19:51.755Z,2.45
2023-07-14T17:22:19.730Z,2.55
2023-07-14T17:24:51.600Z,2.78
2023-07-14T17:27:20.063Z,2.50
2023-07-14T17:29:51.648Z,2.75
2023-07-14T17:32:20.434Z,2.47
2023-07-14T17:34:48.309Z,2.40
2023-07-14T17:37:21.990Z,3.33
2023-07-14T17:39:49.810Z,2.85
2023-07-14T17:42:19.686Z,2.95
2023-07-14T17:44:48.403Z,3.17
2023-07-14T17:47:16.295Z,3.00
2023-07-14T17:49:44.605Z,2.70
2023-07-14T17:52:17.981Z,2.92
2023-07-14T17:54:48.141Z,3.20
2023-07-14T17:57:18.272Z,2.72
2023-07-14T17:59:51.149Z,2.78
2023-07-14T18:04:50.974Z,3.42
2023-07-14T18:07:20.184Z,2.97
2023-07-14T18:09:47.999Z,3.20
2023-07-14T18:12:17.967Z,3.15
2023-07-14T18:14:46.692Z,3.72
2023-07-14T18:17:15.813Z,2.80
2023-07-14T18:19:44.701Z,3.15
2023-07-14T18:22:27.419Z,2.83
2023-07-14T18:24:56.063Z,4.17
2023-07-14T18:27:24.077Z,3.28
2023-07-14T18:29:51.859Z,3.25
2023-07-14T18:32:19.702Z,3.67
2023-07-14T18:34:47.750Z,3.30
2023-07-14T18:37:16.709Z,3.40
2023-07-14T18:39:47.846Z,3.45
2023-07-14T18:42:20.020Z,3.58
2023-07-14T18:44:48.927Z,3.50
2023-07-14T18:47:19.909Z,3.70
2023-07-14T18:49:47.990Z,3.85
2023-07-14T18:52:16.926Z,2.90
2023-07-14T18:54:46.177Z,3.75
2023-07-14T18:57:18.977Z,3.60
2023-07-14T18:59:48.060Z,3.25
2023-07-14T19:02:28.188Z,3.47
2023-07-14T19:04:58.374Z,3.53
2023-07-14T19:07:28.018Z,3.55
2023-07-14T19:09:57.499Z,3.50
2023-07-14T19:12:27.029Z,3.25
2023-07-14T19:14:54.877Z,3.47
2023-07-14T19:17:24.358Z,3.78
2023-07-14T19:19:53.690Z,3.35
2023-07-14T19:22:25.351Z,3.42
2023-07-14T19:24:53.327Z,3.92
2023-07-14T19:27:22.982Z,3.40
2023-07-14T19:29:56.219Z,3.40
2023-07-14T19:32:28.275Z,3.30
2023-07-14T19:34:56.607Z,3.50
2023-07-14T19:37:24.690Z,3.42
2023-07-14T19:39:52.549Z,3.80
2023-07-14T19:42:21.647Z,3.83
2023-07-14T19:44:50.940Z,3.60
2023-07-14T19:47:20.805Z,3.60
2023-07-14T19:49:48.904Z,3.70
2023-07-14T19:52:17.220Z,3.47
2023-07-14T19:54:45.022Z,4.00
2023-07-14T19:57:16.228Z,3.38
2023-07-14T19:59:45.366Z,4.35
2023-07-14T20:02:26.831Z,3.67
2023-07-14T20:04:55.781Z,4.30
2023-07-14T20:07:23.982Z,3.90
2023-07-14T20:09:51.876Z,3.80
2023-07-14T20:12:21.477Z,3.33
2023-07-14T20:14:49.298Z,3.90
2023-07-14T20:17:17.279Z,4.35
2023-07-14T20:19:46.525Z,4.35
2023-07-14T20:22:21.327Z,4.45
2023-07-14T20:24:50.083Z,4.13
2023-07-14T20:27:24.578Z,4.32
2023-07-14T20:29:53.491Z,4.40
2023-07-14T20:32:25.972Z,3.97
2023-07-14T20:35:01.252Z,4.40
2023-07-14T20:37:29.705Z,5.00
2023-07-14T20:39:57.846Z,4.45
2023-07-14T20:42:25.680Z,3.95
2023-07-14T20:44:53.425Z,4.68
2023-07-14T20:47:21.295Z,4.20
2023-07-14T20:49:51.254Z,4.25
2023-07-14T20:52:22.465Z,4.53
2023-07-14T20:54:54.779Z,4.38
2023-07-14T20:57:22.735Z,4.53
2023-07-14T20:59:50.848Z,4.45
2023-07-14T21:02:21.774Z,4.65
2023-07-14T21:04:49.816Z,4.80
2023-07-14T21:07:18.849Z,4.63
2023-07-14T21:09:48.335Z,4.22
2023-07-14T21:12:18.778Z,4.30
2023-07-14T21:14:46.610Z,4.57
2023-07-14T21:17:16.885Z,4.53
2023-07-14T21:19:45.066Z,4.85
2023-07-14T21:22:14.172Z,4.22
2023-07-14T21:24:42.981Z,4.47
2023-07-14T21:27:17.185Z,4.65
2023-07-14T21:29:45.485Z,4.78
2023-07-14T21:32:25.631Z,4.57
2023-07-14T21:34:54.885Z,4.30
2023-07-14T21:37:25.594Z,5.03
2023-07-14T21:39:53.589Z,5.10
2023-07-14T21:42:23.445Z,4.32
2023-07-14T21:44:51.234Z,4.30
2023-07-14T21:47:22.090Z,4.32
2023-07-14T21:49:50.236Z,4.00
2023-07-14T21:52:22.781Z,4.00
2023-07-14T21:54:50.583Z,3.92
2023-07-14T21:57:18.604Z,4.32
2023-07-14T21:59:47.788Z,4.13
2023-07-14T22:02:16.393Z,5.03
2023-07-14T22:04:44.377Z,3.95
2023-07-14T22:07:13.343Z,4.00
2023-07-14T22:09:42.083Z,4.10
2023-07-14T22:12:18.707Z,3.55
2023-07-14T22:14:47.962Z,3.40
2023-07-14T22:17:17.243Z,3.55
2023-07-14T22:19:46.604Z,3.90
2023-07-14T22:22:15.597Z,3.40
2023-07-14T22:24:43.709Z,3.80
2023-07-14T22:27:13.558Z,3.55
2023-07-14T22:29:42.979Z,4.30
2023-07-14T22:32:16.136Z,3.45
2023-07-14T22:34:44.954Z,4.05
2023-07-14T22:37:12.779Z,3.72
2023-07-14T22:39:40.562Z,3.65
2023-07-14T22:42:10.807Z,3.38
2023-07-14T22:44:38.566Z,3.80
2023-07-14T22:47:11.847Z,3.38
2023-07-14T22:49:41.669Z,3.70
2023-07-14T22:52:12.319Z,3.60
2023-07-14T22:54:40.165Z,3.70
2023-07-14T22:57:16.081Z,4.05
2023-07-14T22:59:44.230Z,3.45
2023-07-14T23:02:15.596Z,4.15
2023-07-14T23:04:44.899Z,4.22
2023-07-14T23:07:13.956Z,4.00
2023-07-14T23:09:42.090Z,3.88
2023-07-14T23:12:15.224Z,3.90
2023-07-14T23:14:44.636Z,3.92
2023-07-14T23:17:14.719Z,3.80
2023-07-14T23:19:44.007Z,4.07
2023-07-14T23:22:12.465Z,3.47
2023-07-14T23:24:40.248Z,3.90
2023-07-14T23:27:10.592Z,3.50
2023-07-14T23:29:38.386Z,2.95
2023-07-14T23:32:07.162Z,3.00
2023-07-14T23:34:35.013Z,3.33
2023-07-14T23:37:04.284Z,2.78
2023-07-14T23:39:32.139Z,2.83
2023-07-14T23:41:59.910Z,3.10
2023-07-14T23:44:28.032Z,3.20
2023-07-14T23:46:56.059Z,2.83
2023-07-14T23:49:23.895Z,2.90
2023-07-14T23:51:52.658Z,2.63
2023-07-14T23:54:24.988Z,2.72
2023-07-14T23:56:52.825Z,3.30
2023-07-14T23:59:21.121Z,2.92
